createdAt,value
2023-01-28T00:01:18.160Z,85.13
2023-01-28T00:03:46.136Z,77.83
2023-01-28T00:06:16.286Z,86.47
2023-01-28T00:08:43.940Z,88.27
2023-01-28T00:11:14.039Z,84.37
2023-01-28T00:13:42.109Z,83.47
2023-01-28T00:16:10.614Z,90.20
2023-01-28T00:18:39.139Z,88.27
2023-01-28T00:21:09.523Z,87.13
2023-01-28T00:23:40.279Z,85.67
2023-01-28T00:26:11.222Z,90.97
2023-01-28T00:28:41.847Z,87.70
2023-01-28T00:31:10.740Z,88.10
2023-01-28T00:33:38.820Z,93.67
2023-01-28T00:36:07.624Z,91.80
2023-01-28T00:38:35.757Z,88.23
2023-01-28T00:41:15.685Z,97.10
2023-01-28T00:43:44.766Z,99.97
2023-01-28T00:46:14.081Z,81.07
2023-01-28T00:48:43.506Z,86.20
2023-01-28T00:51:13.523Z,100.70
2023-01-28T00:53:42.100Z,87.30
2023-01-28T00:56:12.888Z,89.87
2023-01-28T00:58:42.727Z,88.07
2023-01-28T01:01:12.311Z,83.23
2023-01-28T01:03:40.211Z,86.30
2023-01-28T01:06:08.983Z,88.97
2023-01-28T01:08:39.902Z,86.57
2023-01-28T01:11:09.161Z,83.40
2023-01-28T01:13:37.851Z,86.47
2023-01-28T01:16:09.717Z,91.03
2023-01-28T01:18:42.058Z,82.20
2023-01-28T01:21:11.594Z,76.30
2023-01-28T01:23:39.417Z,83.23
2023-01-28T01:26:08.570Z,85.50
2023-01-28T01:28:36.672Z,80.47
2023-01-28T01:31:07.573Z,81.23
2023-01-28T01:33:35.920Z,79.80
2023-01-28T01:36:03.875Z,81.47
2023-01-28T01:38:31.550Z,79.20
2023-01-28T01:41:00.074Z,75.07
2023-01-28T01:43:50.667Z,78.83
2023-01-28T01:46:23.666Z,83.70
2023-01-28T01:48:53.332Z,78.80
2023-01-28T01:51:27.067Z,84.37
2023-01-28T01:53:58.093Z,83.33
2023-01-28T01:56:31.698Z,82.03
2023-01-28T01:59:00.745Z,85.97
2023-01-28T02:01:32.471Z,80.63
2023-01-28T02:04:07.034Z,88.63
2023-01-28T02:06:37.613Z,85.00
2023-01-28T02:09:22.475Z,89.00
2023-01-28T02:11:52.339Z,83.83
2023-01-28T02:14:30.671Z,91.60
2023-01-28T02:17:01.640Z,93.40
2023-01-28T02:19:38.213Z,87.60
2023-01-28T02:22:27.881Z,82.83
2023-01-28T02:25:18.730Z,82.53
2023-01-28T02:28:10.049Z,83.43
2023-01-28T02:30:41.662Z,78.73
2023-01-28T02:33:18.373Z,86.63
2023-01-28T02:35:53.426Z,82.30
2023-01-28T02:38:27.613Z,84.47
2023-01-28T02:41:06.396Z,83.07
2023-01-28T02:43:38.513Z,82.63
2023-01-28T02:46:34.493Z,84.30
2023-01-28T02:49:05.876Z,83.37
2023-01-28T02:51:47.423Z,79.73
2023-01-28T02:54:25.163Z,81.57
2023-01-28T02:57:01.030Z,82.53
2023-01-28T02:59:37.079Z,81.23
2023-01-28T03:02:17.632Z,78.57
2023-01-28T03:04:51.387Z,84.87
2023-01-28T03:07:20.902Z,88.30
2023-01-28T03:09:51.129Z,85.03
2023-01-28T03:12:40.363Z,89.23
2023-01-28T03:15:32.153Z,82.60
2023-01-28T03:18:21.412Z,79.53
2023-01-28T03:21:13.281Z,85.10
2023-01-28T03:24:06.174Z,89.63
2023-01-28T03:26:57.373Z,78.10
2023-01-28T03:29:44.958Z,84.10
2023-01-28T03:32:34.681Z,76.90
2023-01-28T03:35:20.917Z,82.60
2023-01-28T03:37:48.797Z,84.83
2023-01-28T03:40:22.756Z,77.20
2023-01-28T03:42:52.206Z,96.37
2023-01-28T03:45:33.020Z,88.23
2023-01-28T03:48:04.012Z,88.37
2023-01-28T03:50:31.925Z,93.10
2023-01-28T03:53:13.509Z,88.93
2023-01-28T03:55:54.151Z,89.73
2023-01-28T03:58:23.339Z,81.87
2023-01-28T04:00:52.082Z,86.30
2023-01-28T04:03:22.340Z,89.77
2023-01-28T04:06:00.826Z,91.37
2023-01-28T04:08:59.210Z,79.73
2023-01-28T04:11:46.014Z,81.13
2023-01-28T04:14:18.560Z,90.17
2023-01-28T04:16:52.019Z,86.40
2023-01-28T04:19:21.739Z,82.53
2023-01-28T04:21:49.885Z,88.73
2023-01-28T04:24:18.102Z,84.70
2023-01-28T04:26:45.909Z,98.90
2023-01-28T04:29:13.834Z,93.30
2023-01-28T04:31:41.612Z,95.87
2023-01-28T04:34:20.329Z,88.10
2023-01-28T04:37:11.018Z,88.33
2023-01-28T04:39:45.414Z,86.97
2023-01-28T04:42:39.333Z,82.57
2023-01-28T04:45:19.313Z,81.47
2023-01-28T04:48:10.397Z,85.80
2023-01-28T04:51:07.687Z,74.40
2023-01-28T04:53:50.667Z,85.40
2023-01-28T04:56:30.749Z,85.90
2023-01-28T04:58:58.444Z,82.57
2023-01-28T05:01:27.306Z,91.07
2023-01-28T05:03:55.015Z,91.77
2023-01-28T05:06:26.205Z,82.33
2023-01-28T05:09:15.526Z,77.80
2023-01-28T05:11:43.341Z,92.27
2023-01-28T05:14:11.136Z,84.67
2023-01-28T05:16:42.843Z,92.77
2023-01-28T05:19:12.181Z,88.73
2023-01-28T05:21:42.809Z,91.07
2023-01-28T05:24:21.489Z,81.50
2023-01-28T05:26:49.369Z,86.73
2023-01-28T05:29:18.067Z,93.33
2023-01-28T05:31:48.802Z,84.23
2023-01-28T05:34:18.268Z,86.53
2023-01-28T05:36:46.217Z,87.50
2023-01-28T05:39:28.947Z,90.07
2023-01-28T05:41:56.667Z,76.33
2023-01-28T05:44:24.758Z,82.07
2023-01-28T05:47:18.527Z,80.97
2023-01-28T05:49:52.464Z,88.03
2023-01-28T05:52:38.133Z,81.70
2023-01-28T05:55:11.359Z,87.20
2023-01-28T05:57:39.003Z,75.13
2023-01-28T06:00:09.777Z,72.20
2023-01-28T06:02:42.391Z,74.63
2023-01-28T06:05:12.405Z,78.80
2023-01-28T06:07:41.470Z,75.57
2023-01-28T06:10:13.976Z,70.93
2023-01-28T06:12:41.966Z,82.07
2023-01-28T06:15:39.327Z,76.13
2023-01-28T06:18:18.907Z,79.43
2023-01-28T06:20:46.682Z,81.00
2023-01-28T06:23:14.459Z,91.30
2023-01-28T06:25:43.559Z,91.27
2023-01-28T06:28:13.722Z,80.37
2023-01-28T06:30:41.560Z,84.97
2023-01-28T06:33:09.211Z,83.93
2023-01-28T06:35:36.902Z,82.97
2023-01-28T06:38:05.052Z,86.83
2023-01-28T06:40:32.742Z,83.57
2023-01-28T06:43:01.691Z,83.93
2023-01-28T06:45:29.396Z,82.73
2023-01-28T06:47:57.007Z,86.43
2023-01-28T06:50:25.068Z,95.00
2023-01-28T06:52:52.738Z,84.03
2023-01-28T06:55:20.431Z,87.53
2023-01-28T06:57:48.236Z,80.97
2023-01-28T07:00:18.706Z,88.13
2023-01-28T07:02:46.465Z,83.57
2023-01-28T07:05:14.163Z,84.30
2023-01-28T07:07:42.264Z,80.57
2023-01-28T07:10:11.583Z,73.90
2023-01-28T07:12:40.279Z,77.87
2023-01-28T07:15:10.841Z,81.87
2023-01-28T07:17:42.084Z,79.37
2023-01-28T07:20:12.174Z,75.10
2023-01-28T07:22:41.997Z,71.97
2023-01-28T07:25:12.059Z,80.73
2023-01-28T07:27:39.786Z,82.60
2023-01-28T07:30:08.578Z,83.73
2023-01-28T07:32:36.305Z,80.57
2023-01-28T07:35:05.874Z,77.97
2023-01-28T07:37:33.778Z,84.27
2023-01-28T07:40:01.531Z,80.73
2023-01-28T07:42:29.631Z,84.10
2023-01-28T07:44:57.494Z,83.97
2023-01-28T07:47:25.187Z,73.50
2023-01-28T07:49:52.879Z,80.30
2023-01-28T07:52:21.864Z,87.70
2023-01-28T07:54:49.509Z,76.77
2023-01-28T07:57:23.467Z,81.03
2023-01-28T07:59:51.678Z,81.33
2023-01-28T08:02:19.645Z,83.23
2023-01-28T08:04:47.668Z,82.73
2023-01-28T08:07:15.447Z,72.80
2023-01-28T08:09:44.381Z,86.40
2023-01-28T08:12:12.019Z,83.80
2023-01-28T08:14:39.718Z,86.03
2023-01-28T08:17:07.350Z,83.57
2023-01-28T08:19:34.978Z,87.40
2023-01-28T08:22:02.567Z,83.00
2023-01-28T08:24:30.336Z,79.80
2023-01-28T08:26:59.383Z,93.07
2023-01-28T08:29:27.019Z,97.93
2023-01-28T08:31:54.652Z,107.43
2023-01-28T08:34:22.533Z,98.03
2023-01-28T08:36:50.253Z,94.37
2023-01-28T08:39:17.870Z,111.83
2023-01-28T08:41:45.489Z,107.00
2023-01-28T08:44:14.416Z,97.73
2023-01-28T08:46:42.093Z,114.40
2023-01-28T08:49:09.868Z,100.53
2023-01-28T08:51:37.621Z,112.23
2023-01-28T08:54:05.305Z,113.33
2023-01-28T08:56:33.174Z,108.30
2023-01-28T08:59:00.797Z,116.23
2023-01-28T09:01:29.779Z,116.93
2023-01-28T09:03:57.437Z,108.77
2023-01-28T09:06:25.169Z,117.53
2023-01-28T09:08:52.797Z,127.20
2023-01-28T09:11:20.429Z,132.53
2023-01-28T09:13:48.059Z,128.47
2023-01-28T09:16:15.802Z,129.43
2023-01-28T09:18:45.092Z,129.23
2023-01-28T09:21:12.773Z,141.40
2023-01-28T09:23:40.415Z,129.23
2023-01-28T09:26:09.042Z,144.40
2023-01-28T09:28:38.298Z,134.33
2023-01-28T09:31:08.252Z,148.17
2023-01-28T09:33:37.457Z,146.20
2023-01-28T09:36:08.774Z,151.70
2023-01-28T09:38:36.500Z,154.60
2023-01-28T09:41:16.267Z,140.57
2023-01-28T09:43:57.128Z,142.00
2023-01-28T09:46:32.074Z,152.33
2023-01-28T09:49:02.282Z,156.23
2023-01-28T09:51:35.453Z,167.53
2023-01-28T09:54:07.464Z,157.80
2023-01-28T09:56:41.230Z,173.43
2023-01-28T09:59:20.170Z,158.57
2023-01-28T10:01:55.381Z,161.43
2023-01-28T10:04:34.130Z,158.93
2023-01-28T10:07:18.457Z,154.83
2023-01-28T10:09:52.082Z,149.83
2023-01-28T10:12:52.685Z,158.67
2023-01-28T10:15:31.850Z,154.10
2023-01-28T10:18:16.594Z,156.70
2023-01-28T10:20:49.632Z,142.50
2023-01-28T10:23:23.529Z,152.17
2023-01-28T10:25:51.183Z,158.03
2023-01-28T10:28:22.064Z,181.30
2023-01-28T10:30:50.158Z,162.80
2023-01-28T10:33:21.400Z,150.10
2023-01-28T10:35:49.631Z,169.33
2023-01-28T10:38:25.707Z,166.40
2023-01-28T10:40:53.779Z,165.97
2023-01-28T10:43:31.106Z,172.33
2023-01-28T10:46:03.621Z,161.70
2023-01-28T10:48:35.056Z,168.60
2023-01-28T10:51:06.057Z,163.10
2023-01-28T10:53:40.660Z,159.13
2023-01-28T10:56:11.098Z,155.90
2023-01-28T10:58:59.810Z,155.10
2023-01-28T11:01:40.094Z,158.27
2023-01-28T11:04:16.115Z,151.90
2023-01-28T11:06:43.863Z,160.47
2023-01-28T11:09:24.512Z,163.00
2023-01-28T11:11:52.207Z,169.20
2023-01-28T11:14:22.192Z,163.53
2023-01-28T11:16:52.783Z,175.63
2023-01-28T11:19:22.308Z,169.50
2023-01-28T11:21:53.092Z,169.00
2023-01-28T11:24:26.896Z,169.30
2023-01-28T11:26:57.461Z,162.97
2023-01-28T11:29:31.957Z,163.50
2023-01-28T11:32:00.729Z,144.83
2023-01-28T11:34:30.238Z,156.07
2023-01-28T11:37:04.354Z,153.87
2023-01-28T11:39:33.395Z,162.90
2023-01-28T11:42:17.130Z,156.87
2023-01-28T11:44:45.209Z,152.80
2023-01-28T11:47:45.079Z,159.10
2023-01-28T11:50:26.482Z,150.23
2023-01-28T11:53:08.046Z,150.90
2023-01-28T11:55:44.713Z,154.33
2023-01-28T11:58:22.496Z,153.90
2023-01-28T12:01:03.549Z,161.87
2023-01-28T12:03:44.124Z,155.73
2023-01-28T12:06:26.692Z,155.40
2023-01-28T12:09:01.550Z,155.97
2023-01-28T12:11:55.782Z,163.50
2023-01-28T12:14:31.047Z,155.27
2023-01-28T12:17:08.919Z,153.47
2023-01-28T12:19:56.947Z,155.97
2023-01-28T12:22:40.138Z,147.00
2023-01-28T12:25:22.281Z,153.07
2023-01-28T12:28:01.264Z,149.97
2023-01-28T12:30:44.658Z,159.77
2023-01-28T12:33:36.746Z,157.87
2023-01-28T12:36:17.238Z,135.97
2023-01-28T12:38:55.525Z,146.67
2023-01-28T12:41:29.509Z,144.67
2023-01-28T12:44:03.468Z,156.23
2023-01-28T12:46:39.851Z,167.20
2023-01-28T12:49:12.954Z,157.97
2023-01-28T12:51:52.036Z,169.77
2023-01-28T12:54:25.780Z,165.43
2023-01-28T12:56:55.224Z,171.43
2023-01-28T12:59:30.118Z,182.17
2023-01-28T13:02:06.601Z,158.43
2023-01-28T13:04:43.347Z,165.03
2023-01-28T13:07:15.290Z,162.13
2023-01-28T13:09:50.622Z,158.63
2023-01-28T13:12:19.605Z,165.03
2023-01-28T13:14:49.550Z,157.20
2023-01-28T13:17:27.288Z,172.80
2023-01-28T13:19:55.017Z,163.27
2023-01-28T13:22:31.843Z,168.27
2023-01-28T13:25:14.964Z,168.57
2023-01-28T13:27:42.800Z,163.93
2023-01-28T13:30:26.750Z,179.47
2023-01-28T13:32:59.776Z,157.67
2023-01-28T13:35:36.397Z,166.83
2023-01-28T13:38:10.130Z,157.37
2023-01-28T13:40:41.592Z,160.33
2023-01-28T13:43:27.042Z,156.10
2023-01-28T13:46:01.178Z,148.90
2023-01-28T13:48:33.538Z,163.00
2023-01-28T13:51:03.065Z,141.00
2023-01-28T13:53:41.169Z,164.03
2023-01-28T13:56:19.494Z,147.93
2023-01-28T13:59:10.124Z,142.37
2023-01-28T14:02:03.019Z,138.63
2023-01-28T14:05:00.272Z,140.93
2023-01-28T14:07:41.479Z,149.87
2023-01-28T14:10:45.116Z,140.90
2023-01-28T14:13:45.868Z,148.37
2023-01-28T14:16:31.310Z,138.53
2023-01-28T14:19:03.144Z,149.97
2023-01-28T14:21:34.907Z,149.27
2023-01-28T14:24:02.992Z,139.80
2023-01-28T14:26:41.710Z,144.87
2023-01-28T14:29:19.644Z,129.50
2023-01-28T14:31:48.146Z,130.70
2023-01-28T14:34:25.264Z,142.07
2023-01-28T14:36:57.040Z,141.70
2023-01-28T14:39:28.229Z,141.93
2023-01-28T14:41:59.249Z,145.60
2023-01-28T14:44:33.409Z,139.20
2023-01-28T14:47:30.523Z,137.10
2023-01-28T14:50:17.760Z,125.97
2023-01-28T14:53:02.312Z,126.47
2023-01-28T14:55:38.279Z,135.37
2023-01-28T14:58:10.000Z,125.13
2023-01-28T15:00:39.526Z,145.37
2023-01-28T15:03:24.927Z,130.43
2023-01-28T15:06:07.492Z,126.10
2023-01-28T15:08:35.816Z,137.47
2023-01-28T15:11:04.219Z,128.90
2023-01-28T15:13:37.449Z,125.67
2023-01-28T15:16:06.326Z,134.93
2023-01-28T15:18:37.260Z,143.80
2023-01-28T15:21:06.600Z,131.47
2023-01-28T15:23:36.130Z,131.37
2023-01-28T15:26:07.213Z,124.20
2023-01-28T15:28:37.836Z,132.80
2023-01-28T15:31:06.071Z,125.73
2023-01-28T15:33:33.844Z,140.03
2023-01-28T15:36:01.631Z,127.67
2023-01-28T15:38:30.737Z,132.10
2023-01-28T15:41:01.226Z,128.40
2023-01-28T15:43:31.426Z,133.80
2023-01-28T15:46:00.478Z,134.60
2023-01-28T15:48:30.141Z,135.47
2023-01-28T15:51:03.084Z,132.57
2023-01-28T15:53:42.929Z,129.70
2023-01-28T15:56:12.837Z,120.80
2023-01-28T15:58:42.222Z,117.90
2023-01-28T16:01:21.419Z,129.83
2023-01-28T16:04:01.927Z,121.63
2023-01-28T16:06:34.115Z,120.93
2023-01-28T16:09:05.795Z,129.83
2023-01-28T16:11:41.252Z,126.93
2023-01-28T16:14:25.144Z,122.33
2023-01-28T16:16:55.634Z,115.17
2023-01-28T16:19:33.630Z,113.93
2023-01-28T16:22:02.389Z,112.97
2023-01-28T16:24:36.090Z,118.17
2023-01-28T16:27:06.806Z,117.70
2023-01-28T16:29:34.579Z,114.80
2023-01-28T16:32:03.648Z,124.97
2023-01-28T16:34:31.400Z,132.57
2023-01-28T16:36:59.918Z,116.63
2023-01-28T16:39:27.566Z,117.53
2023-01-28T16:41:56.859Z,122.20
2023-01-28T16:44:24.624Z,123.03
2023-01-28T16:46:52.332Z,113.67
2023-01-28T16:49:19.979Z,121.43
2023-01-28T16:51:47.746Z,130.63
2023-01-28T16:54:17.334Z,115.17
2023-01-28T16:56:46.754Z,121.57
2023-01-28T16:59:17.121Z,123.67
2023-01-28T17:01:45.665Z,119.57
2023-01-28T17:04:13.639Z,124.20
2023-01-28T17:06:44.180Z,118.73
2023-01-28T17:09:12.991Z,119.60
2023-01-28T17:11:41.080Z,121.17
2023-01-28T17:14:09.430Z,116.07
2023-01-28T17:16:38.685Z,119.30
2023-01-28T17:19:06.565Z,118.60
2023-01-28T17:21:34.211Z,105.83
2023-01-28T17:24:03.017Z,122.20
2023-01-28T17:26:30.956Z,112.57
2023-01-28T17:28:58.595Z,120.47
2023-01-28T17:31:27.279Z,125.80
2023-01-28T17:33:58.064Z,116.60
2023-01-28T17:36:26.893Z,121.83
2023-01-28T17:38:55.056Z,119.33
2023-01-28T17:41:23.048Z,114.93
2023-01-28T17:43:51.617Z,118.23
2023-01-28T17:46:20.070Z,121.87
2023-01-28T17:48:47.923Z,117.07
2023-01-28T17:51:18.654Z,107.43
2023-01-28T17:53:47.554Z,119.23
2023-01-28T17:56:19.314Z,121.83
2023-01-28T17:58:50.884Z,107.13
2023-01-28T18:01:18.684Z,108.10
2023-01-28T18:03:46.538Z,120.50
2023-01-28T18:06:14.200Z,111.10
2023-01-28T18:08:43.898Z,111.37
2023-01-28T18:11:14.025Z,113.83
2023-01-28T18:13:43.044Z,116.67
2023-01-28T18:16:15.902Z,119.07
2023-01-28T18:18:43.834Z,117.60
2023-01-28T18:21:21.045Z,105.27
2023-01-28T18:23:53.532Z,116.77
2023-01-28T18:26:22.108Z,105.03
2023-01-28T18:28:49.781Z,110.90
2023-01-28T18:31:17.523Z,113.97
2023-01-28T18:33:45.247Z,120.63
2023-01-28T18:36:13.022Z,108.87
2023-01-28T18:38:40.688Z,124.67
2023-01-28T18:41:09.694Z,112.07
2023-01-28T18:43:37.381Z,112.70
2023-01-28T18:46:11.546Z,113.63
2023-01-28T18:48:39.495Z,110.97
2023-01-28T18:51:17.454Z,111.73
2023-01-28T18:53:57.682Z,103.30
2023-01-28T18:56:26.911Z,112.70
2023-01-28T18:58:57.640Z,114.70
2023-01-28T19:01:25.303Z,106.40
2023-01-28T19:03:54.444Z,105.13
2023-01-28T19:06:22.218Z,109.43
2023-01-28T19:08:53.481Z,111.77
2023-01-28T19:11:21.800Z,113.53
2023-01-28T19:13:51.009Z,111.93
2023-01-28T19:16:19.200Z,109.63
2023-01-28T19:18:52.791Z,109.73
2023-01-28T19:21:20.518Z,112.80
2023-01-28T19:23:50.393Z,108.20
2023-01-28T19:26:21.234Z,108.83
2023-01-28T19:28:51.085Z,109.50
2023-01-28T19:31:19.642Z,112.60
2023-01-28T19:33:47.391Z,107.33
2023-01-28T19:36:15.208Z,110.37
2023-01-28T19:38:42.891Z,100.87
2023-01-28T19:41:13.375Z,105.07
2023-01-28T19:43:41.077Z,112.63
2023-01-28T19:46:14.408Z,111.27
2023-01-28T19:48:42.138Z,114.83
2023-01-28T19:51:10.819Z,120.10
2023-01-28T19:53:40.084Z,106.07
2023-01-28T19:56:10.507Z,111.87
2023-01-28T19:58:39.772Z,116.43
2023-01-28T20:01:08.674Z,109.87
2023-01-28T20:03:38.386Z,119.57
2023-01-28T20:06:07.950Z,120.50
2023-01-28T20:08:35.612Z,112.97
2023-01-28T20:11:05.152Z,105.70
2023-01-28T20:13:34.049Z,114.53
2023-01-28T20:16:05.837Z,110.57
2023-01-28T20:18:33.945Z,110.23
2023-01-28T20:21:04.920Z,111.03
2023-01-28T20:23:33.598Z,104.23
2023-01-28T20:26:01.901Z,110.63
2023-01-28T20:28:29.769Z,105.63
2023-01-28T20:30:57.491Z,104.27
2023-01-28T20:33:25.328Z,116.43
2023-01-28T20:35:53.068Z,114.70
2023-01-28T20:38:22.048Z,103.93
2023-01-28T20:40:49.688Z,108.53
2023-01-28T20:43:17.353Z,107.13
2023-01-28T20:45:45.015Z,102.10
2023-01-28T20:48:12.774Z,108.13
2023-01-28T20:50:40.557Z,115.07
2023-01-28T20:53:08.203Z,92.50
2023-01-28T20:55:37.230Z,102.43
2023-01-28T20:58:05.288Z,104.00
2023-01-28T21:00:32.957Z,107.47
2023-01-28T21:03:00.710Z,109.63
2023-01-28T21:05:28.370Z,111.00
2023-01-28T21:07:56.029Z,112.87
2023-01-28T21:10:23.664Z,106.53
2023-01-28T21:12:52.673Z,115.83
2023-01-28T21:15:20.281Z,112.90
2023-01-28T21:17:47.927Z,112.63
2023-01-28T21:20:16.240Z,109.90
2023-01-28T21:22:44.031Z,105.67
2023-01-28T21:25:11.687Z,111.77
2023-01-28T21:27:39.378Z,110.27
2023-01-28T21:30:09.960Z,115.73
2023-01-28T21:32:37.621Z,105.77
2023-01-28T21:35:05.622Z,107.77
2023-01-28T21:37:33.293Z,109.60
2023-01-28T21:40:00.955Z,110.30
2023-01-28T21:42:28.997Z,108.13
2023-01-28T21:44:56.601Z,100.37
2023-01-28T21:47:25.699Z,107.23
2023-01-28T21:49:53.320Z,99.00
2023-01-28T21:52:22.037Z,98.13
2023-01-28T21:54:49.654Z,111.73
2023-01-28T21:57:17.281Z,108.90
2023-01-28T21:59:43.917Z,110.80
2023-01-28T22:02:13.757Z,103.80
2023-01-28T22:04:44.431Z,108.57
2023-01-28T22:07:14.125Z,98.77
2023-01-28T22:09:42.347Z,110.47
2023-01-28T22:12:10.502Z,102.07
2023-01-28T22:14:39.723Z,113.37
2023-01-28T22:17:09.144Z,105.80
2023-01-28T22:19:36.902Z,97.17
2023-01-28T22:22:06.402Z,108.13
2023-01-28T22:24:34.320Z,100.43
2023-01-28T22:27:01.998Z,104.50
2023-01-28T22:29:29.635Z,108.40
2023-01-28T22:31:57.337Z,108.80
2023-01-28T22:34:25.246Z,95.47
2023-01-28T22:36:52.918Z,93.90
2023-01-28T22:39:21.977Z,103.80
2023-01-28T22:41:49.645Z,94.50
2023-01-28T22:44:19.620Z,96.07
2023-01-28T22:46:48.030Z,101.23
2023-01-28T22:49:15.795Z,109.27
2023-01-28T22:51:43.843Z,95.63
2023-01-28T22:54:13.619Z,95.03
2023-01-28T22:56:42.661Z,95.70
2023-01-28T22:59:10.992Z,95.93
2023-01-28T23:01:39.916Z,107.90
2023-01-28T23:04:07.674Z,101.20
2023-01-28T23:06:37.093Z,96.90
2023-01-28T23:09:05.010Z,94.40
2023-01-28T23:11:33.208Z,105.13
2023-01-28T23:14:21.998Z,100.47
2023-01-28T23:17:16.633Z,96.30
2023-01-28T23:20:02.164Z,88.77
2023-01-28T23:22:50.959Z,97.47
2023-01-28T23:25:19.282Z,94.40
2023-01-28T23:27:46.923Z,102.47
2023-01-28T23:30:16.443Z,103.53
2023-01-28T23:32:48.124Z,100.10
2023-01-28T23:35:16.404Z,94.53
2023-01-28T23:37:44.240Z,102.23
2023-01-28T23:40:13.502Z,90.63
2023-01-28T23:42:41.667Z,104.67
2023-01-28T23:45:10.418Z,95.63
2023-01-28T23:47:39.403Z,94.10
2023-01-28T23:50:07.606Z,92.30
2023-01-28T23:52:35.263Z,95.53
2023-01-28T23:55:03.106Z,89.97
2023-01-28T23:57:30.817Z,101.87
2023-01-28T23:59:58.467Z,93.00
